Gainsborough, United Kingdom
Current Conditions -  °F | °C
As of 5:50 PM on Thursday 27 Nov 2014 (Local Time) from EGXP Reporting Station
Broken Clouds Broken Clouds  
Wind Chill: 43°   Ceiling: 12000
Heat Index: 46°   Visibility: 6mi
Dew Point: 46°   Wind: 7mph
Humidity: 100%   Direction: 170°S
Pressure: 29.59"   Gusts: NA
Location:  53.38°N, 0.77°W
Report Text: EGXP 271750Z AUTO 17006KT 9999 // FEW021/// BKN120/// 08/08 Q1002
Loading
Personal Weather Stations






























Interactive Weather Map New forecast layout! Learn more

10-Day Weather Forecast

Advertisements
Track Severe Weather on mobile